Time;durP1;ratioP1;P1;durP2;ratioP2;P2;SDS_P1;SDS_P2;PMS_P1;PMS_P2;Temp;Humidity;BMP_temperature;BMP_pressure;BME280_temperature;BME280_humidity;BME280_pressure;Samples;Min_cycle;Max_cycle;Signal;HPM_P1;HPM_P2
2022/07/23 00:00:55;;;;;;;;;19.25;18.25;;;;;23.37;100.00;101485.19;5125720;27;45306;-84
2022/07/23 00:03:20;;;;;;;;;22.00;20.00;;;;;23.37;100.00;101492.22;5129841;27;45242;-84
2022/07/23 00:05:46;;;;;;;;;20.50;16.75;;;;;23.39;100.00;101493.09;5132799;27;45324;-84
2022/07/23 00:08:12;;;;;;;;;19.50;17.50;;;;;23.40;100.00;101489.59;5132971;27;45172;-84
2022/07/23 00:10:38;;;;;;;;;19.25;18.50;;;;;23.41;100.00;101492.22;5134735;27;46618;-83
2022/07/23 00:13:03;;;;;;;;;18.50;16.75;;;;;23.39;100.00;101493.97;5127563;27;45202;-83
2022/07/23 00:15:29;;;;;;;;;18.50;16.00;;;;;23.41;100.00;101494.00;5106993;27;45345;-83
2022/07/23 00:17:54;;;;;;;;;18.75;16.75;;;;;23.39;100.00;101491.31;5124107;27;45381;-86
2022/07/23 00:20:20;;;;;;;;;14.25;14.00;;;;;23.34;100.00;101487.81;5122973;27;45386;-85
2022/07/23 00:22:55;;;;;;;;;16.50;15.50;;;;;23.34;100.00;101487.81;5125904;27;45326;-83
2022/07/23 00:25:25;;;;;;;;;19.00;15.75;;;;;23.28;100.00;101488.66;5125591;27;45986;-83
2022/07/23 00:27:50;;;;;;;;;23.00;21.25;;;;;23.27;100.00;101493.97;5122097;27;45325;-83
2022/07/23 00:30:16;;;;;;;;;22.75;18.00;;;;;23.25;100.00;101480.72;5121855;27;45637;-83
2022/07/23 00:32:52;;;;;;;;;24.75;21.75;;;;;23.23;100.00;101487.75;5121207;27;45308;-83
2022/07/23 00:35:21;;;;;;;;;26.75;24.00;;;;;23.22;100.00;101488.63;5121843;27;45196;-84
2022/07/23 00:37:48;;;;;;;;;25.75;22.75;;;;;23.20;100.00;101479.84;5121582;27;45311;-84
2022/07/23 00:40:14;;;;;;;;;29.50;25.00;;;;;23.23;100.00;101487.75;5123536;27;45288;-85
2022/07/23 00:42:40;;;;;;;;;29.50;26.75;;;;;23.26;100.00;101489.56;5124412;27;45427;-83
2022/07/23 00:45:06;;;;;;;;;30.75;24.00;;;;;23.25;100.00;101480.72;5130543;27;45289;-85
2022/07/23 00:47:32;;;;;;;;;29.50;25.25;;;;;23.24;100.00;101492.16;5139946;27;45227;-83
2022/07/23 00:49:58;;;;;;;;;30.00;24.50;;;;;23.19;100.00;101491.28;5138146;27;45227;-83
2022/07/23 00:52:24;;;;;;;;;25.25;21.00;;;;;23.15;100.00;101493.00;5138878;27;45157;-84
2022/07/23 00:54:50;;;;;;;;;27.75;23.50;;;;;23.15;100.00;101493.00;5142543;27;45180;-84
2022/07/23 00:57:15;;;;;;;;;24.50;21.00;;;;;23.13;100.00;101483.28;5141543;27;45494;-83
2022/07/23 00:59:42;;;;;;;;;22.00;19.50;;;;;23.13;100.00;101473.63;5141326;27;45442;-83
2022/07/23 01:02:07;;;;;;;;;28.50;23.00;;;;;23.09;100.00;101471.84;5140877;27;46442;-83
2022/07/23 01:04:33;;;;;;;;;24.25;20.75;;;;;23.07;100.00;101481.50;5140765;27;45416;-84
2022/07/23 01:07:00;;;;;;;;;20.75;20.00;;;;;23.07;100.00;101481.50;5141048;27;45407;-85
2022/07/23 01:09:26;;;;;;;;;25.50;22.25;;;;;23.00;100.00;101485.88;5141649;27;45299;-84
2022/07/23 01:11:54;;;;;;;;;26.25;22.00;;;;;22.99;100.00;101477.97;5143023;27;45838;-84
2022/07/23 01:14:20;;;;;;;;;23.75;19.50;;;;;22.98;100.00;101479.75;5141584;27;45249;-84
2022/07/23 01:16:48;;;;;;;;;19.00;19.00;;;;;22.99;100.00;101477.97;5129424;27;45337;-84
2022/07/23 01:19:15;;;;;;;;;25.50;23.75;;;;;22.97;100.00;101477.06;5143150;27;45326;-84
2022/07/23 01:21:47;;;;;;;;;20.00;18.75;;;;;22.96;100.00;101476.19;5120507;27;46285;-86
2022/07/23 01:24:13;;;;;;;;;19.00;16.00;;;;;22.95;100.00;101471.78;5119808;27;45306;-84
2022/07/23 01:26:42;;;;;;;;;24.50;19.50;;;;;22.87;100.00;101469.13;5119427;27;45405;-84
2022/07/23 01:29:07;;;;;;;;;19.50;15.00;;;;;22.85;100.00;101470.88;5119814;27;45172;-85
2022/07/23 01:31:33;;;;;;;;;19.25;17.25;;;;;22.85;100.00;101473.50;5100445;27;45559;-82
2022/07/23 01:33:59;;;;;;;;;16.50;15.25;;;;;22.89;100.00;101474.44;5119894;27;45336;-84
2022/07/23 01:36:24;;;;;;;;;22.75;18.00;;;;;22.94;100.00;101475.31;5121407;27;45264;-84
2022/07/23 01:38:50;;;;;;;;;22.00;17.50;;;;;22.94;100.00;101472.66;5123482;27;45627;-85
2022/07/23 01:41:16;;;;;;;;;20.75;17.75;;;;;22.96;100.00;101477.94;5122151;27;45428;-84
2022/07/23 01:43:42;;;;;;;;;24.50;15.75;;;;;22.99;100.00;101473.59;5126682;27;45345;-84
2022/07/23 01:46:08;;;;;;;;;18.25;15.75;;;;;22.98;100.00;101461.25;5122593;27;45367;-84
2022/07/23 01:48:33;;;;;;;;;14.00;13.00;;;;;23.00;100.00;101470.03;5119398;27;45463;-84
2022/07/23 01:50:59;;;;;;;;;11.75;10.50;;;;;23.02;100.00;101472.72;5118722;27;45393;-84
2022/07/23 01:53:25;;;;;;;;;17.25;15.50;;;;;23.00;100.00;101462.13;5119043;27;45310;-84
2022/07/23 01:55:50;;;;;;;;;20.25;19.25;;;;;23.03;100.00;101461.28;5135439;27;45291;-84
2022/07/23 01:58:16;;;;;;;;;19.75;15.25;;;;;23.01;100.00;101468.28;5138092;27;46564;-84
2022/07/23 02:00:41;;;;;;;;;17.25;15.00;;;;;22.97;100.00;101470.03;5120714;27;45356;-84
2022/07/23 02:03:07;;;;;;;;;21.25;18.00;;;;;22.98;100.00;101468.28;5137751;27;45235;-84
2022/07/23 02:05:33;;;;;;;;;16.75;16.25;;;;;22.95;100.00;101463.88;5141630;27;45395;-85
2022/07/23 02:08:00;;;;;;;;;18.50;16.50;;;;;22.95;100.00;101468.25;5145253;27;45336;-87
2022/07/23 02:10:26;;;;;;;;;19.50;16.25;;;;;22.94;100.00;101463.88;5142117;27;45340;-84
2022/07/23 02:12:52;;;;;;;;;18.25;15.75;;;;;22.96;100.00;101464.75;5140600;27;45271;-84
2022/07/23 02:15:18;;;;;;;;;19.25;17.00;;;;;22.95;100.00;101465.63;5139403;27;45332;-85
2022/07/23 02:17:44;;;;;;;;;16.50;15.00;;;;;22.93;100.00;101467.38;5139274;27;45444;-83
2022/07/23 02:20:11;;;;;;;;;16.00;16.00;;;;;22.90;100.00;101468.25;5139713;27;45927;-84
2022/07/23 02:22:37;;;;;;;;;17.25;17.00;;;;;22.91;100.00;101467.38;5138955;27;45913;-84
2022/07/23 02:25:04;;;;;;;;;17.75;17.25;;;;;22.89;100.00;101471.78;5139406;27;45313;-83
2022/07/23 02:27:30;;;;;;;;;12.50;12.00;;;;;22.92;100.00;101477.06;5139320;27;45487;-84
2022/07/23 02:29:56;;;;;;;;;17.25;16.50;;;;;22.92;100.00;101469.13;5139850;27;46248;-84
2022/07/23 02:32:21;;;;;;;;;17.00;13.50;;;;;22.87;100.00;101474.41;5138263;27;45379;-83
2022/07/23 02:34:47;;;;;;;;;15.75;12.50;;;;;22.91;100.00;101483.22;5143662;27;45328;-84
2022/07/23 02:37:13;;;;;;;;;20.50;15.75;;;;;22.89;100.00;101484.97;5144266;27;45560;-84
2022/07/23 02:39:40;;;;;;;;;15.50;14.25;;;;;22.90;100.00;101492.00;5140012;27;45331;-83
2022/07/23 02:42:06;;;;;;;;;17.75;14.25;;;;;22.87;100.00;101494.66;5120704;27;45265;-83
2022/07/23 02:44:31;;;;;;;;;16.50;13.50;;;;;22.85;100.00;101491.97;5139143;27;45206;-84
2022/07/23 02:46:57;;;;;;;;;16.75;13.25;;;;;22.83;100.00;101488.47;5139166;27;45283;-84
2022/07/23 02:49:23;;;;;;;;;16.50;14.00;;;;;22.85;100.00;101494.63;5139096;27;45234;-84
2022/07/23 02:51:48;;;;;;;;;16.25;12.75;;;;;22.83;100.00;101484.94;5140291;27;45338;-86
2022/07/23 02:54:14;;;;;;;;;14.25;14.00;;;;;22.81;100.00;101486.69;5141081;27;45423;-84
2022/07/23 02:56:39;;;;;;;;;15.00;13.00;;;;;22.82;100.00;101499.00;5140621;27;45355;-84
2022/07/23 02:59:05;;;;;;;;;19.00;14.25;;;;;22.80;100.00;101495.47;5138889;27;46251;-85
2022/07/23 03:01:31;;;;;;;;;16.00;14.00;;;;;22.77;100.00;101503.41;5117493;27;45512;-84
2022/07/23 03:03:56;;;;;;;;;14.50;13.75;;;;;22.75;100.00;101510.44;5122243;27;45310;-83
2022/07/23 03:06:22;;;;;;;;;16.25;13.50;;;;;22.68;100.00;101509.50;5122940;27;45332;-83
2022/07/23 03:08:48;;;;;;;;;17.75;13.50;;;;;22.70;100.00;101510.41;5138330;27;46389;-83
2022/07/23 03:11:13;;;;;;;;;16.75;14.00;;;;;22.67;100.00;101510.38;5138714;27;45442;-84
2022/07/23 03:13:40;;;;;;;;;17.00;13.25;;;;;22.62;100.00;101501.56;5140458;27;45395;-84
2022/07/23 03:16:06;;;;;;;;;13.25;11.25;;;;;22.66;100.00;101509.50;5143050;27;45341;-83
2022/07/23 03:18:32;;;;;;;;;14.25;13.50;;;;;22.66;100.00;101505.97;5123490;27;45612;-83
2022/07/23 03:20:58;;;;;;;;;15.00;13.25;;;;;22.61;100.00;101502.44;5142924;27;45760;-84
2022/07/23 03:23:24;;;;;;;;;25.00;15.75;;;;;22.60;100.00;101504.19;5131459;27;45384;-82
2022/07/23 03:25:50;;;;;;;;;23.00;18.25;;;;;22.65;100.00;101506.84;5148612;27;45293;-83
2022/07/23 03:28:16;;;;;;;;;17.00;15.25;;;;;22.62;100.00;101504.22;5129661;27;46569;-83
2022/07/23 03:30:45;;;;;;;;;16.25;15.25;;;;;22.56;100.00;101515.59;5144323;27;45443;-82
2022/07/23 03:33:10;;;;;;;;;13.50;11.25;;;;;22.58;100.00;101527.03;5142963;27;45262;-84
2022/07/23 03:35:36;;;;;;;;;17.50;14.75;;;;;22.58;100.00;101527.03;5142362;27;45587;-84
2022/07/23 03:38:01;;;;;;;;;17.00;14.75;;;;;22.54;100.00;101520.84;5142359;27;46521;-84
2022/07/23 03:40:27;;;;;;;;;20.75;16.25;;;;;22.54;100.00;101520.84;5141830;27;45372;-83
2022/07/23 03:42:53;;;;;;;;;15.25;15.25;;;;;22.55;100.00;101519.13;5123728;27;45319;-85
2022/07/23 03:45:18;;;;;;;;;14.00;14.00;;;;;22.53;100.00;101523.50;5142132;27;45553;-84
2022/07/23 03:47:44;;;;;;;;;14.00;12.75;;;;;22.51;100.00;101518.22;5140550;27;46477;-84
2022/07/23 03:50:10;;;;;;;;;12.50;12.25;;;;;22.49;100.00;101516.41;5141760;27;45177;-84
2022/07/23 03:52:36;;;;;;;;;18.75;14.50;;;;;22.44;100.00;101519.03;5143021;27;45572;-83
2022/07/23 03:55:03;;;;;;;;;16.00;13.75;;;;;22.47;100.00;101521.69;5147402;27;45554;-85
2022/07/23 03:57:29;;;;;;;;;19.50;16.25;;;;;22.46;100.00;101519.94;5125250;27;47753;-84
2022/07/23 03:59:55;;;;;;;;;16.75;15.00;;;;;22.46;100.00;101533.13;5142812;27;45400;-84
2022/07/23 04:02:20;;;;;;;;;18.00;15.25;;;;;22.45;100.00;101522.56;5106288;27;45450;-85
2022/07/23 04:04:46;;;;;;;;;17.00;15.00;;;;;22.46;100.00;101525.22;5120744;27;45189;-87
2022/07/23 04:07:12;;;;;;;;;19.00;17.25;;;;;22.44;100.00;101534.84;5120498;27;46219;-84
2022/07/23 04:09:40;;;;;;;;;19.75;15.50;;;;;22.42;100.00;101533.97;5120588;27;45385;-84
2022/07/23 04:12:06;;;;;;;;;14.50;14.50;;;;;22.46;100.00;101534.88;5128240;27;45251;-85
2022/07/23 04:14:33;;;;;;;;;14.50;14.50;;;;;22.44;100.00;101528.72;5141344;27;45328;-84
2022/07/23 04:16:59;;;;;;;;;14.00;12.25;;;;;22.39;100.00;101539.19;5140513;27;45339;-85
2022/07/23 04:19:25;;;;;;;;;18.00;13.50;;;;;22.38;100.00;101532.16;5141654;27;45868;-84
2022/07/23 04:21:51;;;;;;;;;15.75;14.00;;;;;22.41;100.00;101540.09;5146513;27;45219;-84
2022/07/23 04:24:17;;;;;;;;;15.25;13.00;;;;;22.36;100.00;101534.75;5145746;27;45639;-85
2022/07/23 04:26:43;;;;;;;;;18.50;13.25;;;;;22.37;100.00;101541.81;5140481;27;45272;-84
2022/07/23 04:29:09;;;;;;;;;15.25;14.00;;;;;22.35;100.00;101540.03;5140982;27;45325;-84
2022/07/23 04:31:34;;;;;;;;;13.25;11.00;;;;;22.37;100.00;101543.56;5126037;27;45286;-84
2022/07/23 04:34:00;;;;;;;;;16.75;14.25;;;;;22.39;100.00;101542.72;5120415;27;45276;-84
2022/07/23 04:36:26;;;;;;;;;17.50;13.00;;;;;22.40;100.00;101551.53;5120975;27;45970;-83
2022/07/23 04:38:51;;;;;;;;;18.75;14.00;;;;;22.39;100.00;101545.34;5120042;27;45378;-83
2022/07/23 04:41:17;;;;;;;;;15.25;14.50;;;;;22.41;100.00;101550.66;5120092;27;45321;-84
2022/07/23 04:43:42;;;;;;;;;14.25;12.50;;;;;22.39;100.00;101549.75;5119970;27;45290;-85
2022/07/23 04:46:10;;;;;;;;;12.75;12.75;;;;;22.34;100.00;101555.00;5103234;27;46858;-84
2022/07/23 04:48:36;;;;;;;;;16.75;14.00;;;;;22.30;100.00;101558.47;5116504;27;45369;-84
2022/07/23 04:51:01;;;;;;;;;15.75;12.25;;;;;22.27;100.00;101559.34;5141975;27;45501;-85
2022/07/23 04:53:27;;;;;;;;;15.00;14.00;;;;;22.21;100.00;101554.00;5122053;27;45413;-84
2022/07/23 04:55:53;;;;;;;;;13.00;13.00;;;;;22.23;100.00;101556.66;5140705;27;45328;-83
2022/07/23 04:58:18;;;;;;;;;19.25;14.25;;;;;22.21;100.00;101556.63;5140451;27;45347;-84
2022/07/23 05:00:44;;;;;;;;;15.50;14.75;;;;;22.22;100.00;101565.44;5141365;27;45405;-83
2022/07/23 05:03:09;;;;;;;;;12.75;12.25;;;;;22.22;100.00;101566.31;5129909;27;45348;-85
2022/07/23 05:05:36;;;;;;;;;18.75;14.50;;;;;22.20;100.00;101560.13;5130836;27;46069;-84
2022/07/23 05:08:01;;;;;;;;;16.00;14.00;;;;;22.19;100.00;101549.59;5101407;27;45433;-84
2022/07/23 05:10:27;;;;;;;;;14.50;12.50;;;;;22.25;100.00;101560.19;5124588;27;45398;-84
2022/07/23 05:12:53;;;;;;;;;16.25;15.25;;;;;22.24;100.00;101569.00;5123144;27;45314;-83
2022/07/23 05:15:18;;;;;;;;;17.75;15.50;;;;;22.19;100.00;101565.41;5127173;27;45514;-84
2022/07/23 05:17:44;;;;;;;;;20.25;14.00;;;;;22.20;100.00;101561.91;5120390;27;45349;-85
2022/07/23 05:20:10;;;;;;;;;17.75;12.50;;;;;22.20;100.00;101559.28;5119575;27;45317;-84
2022/07/23 05:22:35;;;;;;;;;20.75;18.75;;;;;22.21;100.00;101564.53;5119266;27;45436;-84
2022/07/23 05:25:01;;;;;;;;;20.25;16.75;;;;;22.20;100.00;101554.88;5118985;27;46497;-84
2022/07/23 05:27:27;;;;;;;;;17.00;16.00;;;;;22.22;100.00;101557.53;5119163;27;45215;-84
2022/07/23 05:29:52;;;;;;;;;18.25;14.75;;;;;22.21;100.00;101554.00;5131308;27;45253;-84
2022/07/23 05:32:18;;;;;;;;;14.00;13.75;;;;;22.21;100.00;101556.63;5140127;27;45227;-83
2022/07/23 05:34:43;;;;;;;;;19.00;14.25;;;;;22.21;100.00;101555.75;5139544;27;45870;-83
2022/07/23 05:37:09;;;;;;;;;18.75;15.00;;;;;22.21;100.00;101550.50;5138943;27;45313;-83
2022/07/23 05:39:34;;;;;;;;;20.75;17.50;;;;;22.26;100.00;101548.75;5141368;27;45428;-83
2022/07/23 05:42:00;;;;;;;;;17.25;14.25;;;;;22.18;100.00;101548.72;5127223;27;45395;-84
2022/07/23 05:44:27;;;;;;;;;19.75;16.75;;;;;22.19;100.00;101561.00;5148097;27;46025;-83
2022/07/23 05:46:53;;;;;;;;;22.25;18.00;;;;;22.14;100.00;101559.22;5148091;27;45749;-83
2022/07/23 05:49:18;;;;;;;;;19.50;17.25;;;;;22.16;100.00;101558.38;5145746;27;45360;-84
2022/07/23 05:51:45;;;;;;;;;20.00;16.75;;;;;22.18;100.00;101572.47;5138908;27;45535;-83
2022/07/23 05:54:10;;;;;;;;;22.00;18.75;;;;;22.13;100.00;101560.97;5123427;27;45320;-85
2022/07/23 05:56:36;;;;;;;;;22.00;18.75;;;;;22.14;100.00;101567.16;5122216;27;45471;-83
2022/07/23 05:59:02;;;;;;;;;29.50;18.75;;;;;22.15;100.00;101568.88;5122584;27;45199;-84
2022/07/23 06:01:27;;;;;;;;;20.75;19.75;;;;;22.13;100.00;101560.09;5140225;27;45217;-84
2022/07/23 06:03:53;;;;;;;;;23.50;20.00;;;;;22.20;100.00;101564.53;5139412;27;46210;-84
2022/07/23 06:06:19;;;;;;;;;30.25;24.00;;;;;22.19;100.00;101568.91;5142085;27;45316;-84
2022/07/23 06:08:44;;;;;;;;;30.50;25.25;;;;;22.22;100.00;101582.16;5141333;27;45277;-84
2022/07/23 06:11:10;;;;;;;;;26.00;22.50;;;;;22.17;100.00;101575.06;5140034;27;45652;-84
2022/07/23 06:13:36;;;;;;;;;29.75;26.50;;;;;22.13;100.00;101587.34;5139226;27;46161;-85
2022/07/23 06:16:02;;;;;;;;;37.50;29.25;;;;;22.10;100.00;101577.66;5142935;27;45430;-86
2022/07/23 06:18:27;;;;;;;;;29.00;26.00;;;;;22.12;100.00;101585.56;5139692;27;45473;-85
2022/07/23 06:20:54;;;;;;;;;34.25;28.00;;;;;22.07;100.00;101577.63;5127602;27;45453;-84
2022/07/23 06:23:20;;;;;;;;;31.00;29.75;;;;;22.07;100.00;101595.22;5147714;27;45396;-84
2022/07/23 06:25:45;;;;;;;;;35.75;30.75;;;;;22.10;100.00;101590.84;5125940;27;45390;-84
2022/07/23 06:28:12;;;;;;;;;40.00;31.25;;;;;22.06;100.00;101586.41;5139707;27;45523;-85
2022/07/23 06:30:38;;;;;;;;;43.75;33.50;;;;;22.04;100.00;101587.25;5140003;27;45219;-85
2022/07/23 06:33:03;;;;;;;;;38.50;32.25;;;;;22.07;100.00;101598.72;5140720;27;45996;-84
2022/07/23 06:35:29;;;;;;;;;40.00;31.75;;;;;22.03;100.00;101590.75;5143999;27;45242;-84
2022/07/23 06:37:55;;;;;;;;;42.25;33.25;;;;;22.06;100.00;101588.16;5147011;27;45282;-88
2022/07/23 06:40:20;;;;;;;;;40.00;34.75;;;;;22.10;100.00;101603.13;5143806;27;45336;-84
2022/07/23 06:42:46;;;;;;;;;40.25;31.75;;;;;22.03;100.00;101596.91;5124026;27;46058;-84
2022/07/23 06:45:12;;;;;;;;;41.50;34.00;;;;;22.02;100.00;101605.72;5128012;27;45409;-81
2022/07/23 06:47:38;;;;;;;;;40.50;33.00;;;;;22.03;100.00;101601.31;5139774;27;45426;-87
2022/07/23 06:50:04;;;;;;;;;44.75;35.00;;;;;21.99;100.00;101596.84;5144090;27;45475;-83
2022/07/23 06:52:31;;;;;;;;;46.25;34.00;;;;;22.03;100.00;101593.41;5145076;27;45504;-89
2022/07/23 06:54:57;;;;;;;;;46.50;35.00;;;;;22.03;100.00;101598.66;5133894;27;45340;-88
2022/07/23 06:57:25;;;;;;;;;41.25;35.00;;;;;22.04;100.00;101608.34;5151454;27;45229;-89
2022/07/23 06:59:51;;;;;;;;;40.25;34.50;;;;;22.06;100.00;101607.50;5124646;27;45245;-85
2022/07/23 07:02:17;;;;;;;;;46.75;34.75;;;;;22.03;100.00;101609.22;5125670;27;45780;-86
2022/07/23 07:04:43;;;;;;;;;45.50;36.00;;;;;22.02;100.00;101613.63;5111948;27;45427;-87
2022/07/23 07:07:08;;;;;;;;;43.25;35.75;;;;;22.01;100.00;101601.31;5121778;27;45355;-85
2022/07/23 07:09:34;;;;;;;;;42.50;33.75;;;;;22.09;100.00;101620.72;5125989;27;45313;-89
2022/07/23 07:12:00;;;;;;;;;41.50;34.00;;;;;22.07;100.00;101611.91;5109704;27;47581;-86
2022/07/23 07:14:26;;;;;;;;;48.00;36.75;;;;;22.18;100.00;101629.59;5131653;27;45411;-84
2022/07/23 07:16:51;;;;;;;;;39.50;33.50;;;;;22.18;100.00;101626.94;5122416;27;45479;-83
2022/07/23 07:19:17;;;;;;;;;45.50;36.50;;;;;22.17;100.00;101630.44;5129051;27;45326;-86
2022/07/23 07:21:42;;;;;;;;;43.00;33.25;;;;;22.17;100.00;101636.63;5116956;27;48027;-83
2022/07/23 07:24:08;;;;;;;;;47.75;36.25;;;;;22.19;100.00;101636.63;5128106;27;45426;-85
2022/07/23 07:26:34;;;;;;;;;48.00;35.75;;;;;22.19;100.00;101634.00;5137550;27;45369;-85
2022/07/23 07:28:59;;;;;;;;;47.25;36.00;;;;;22.21;100.00;101638.41;5135588;27;45251;-82
2022/07/23 07:31:25;;;;;;;;;45.00;33.75;;;;;22.20;100.00;101646.31;5130419;27;46154;-84
2022/07/23 07:33:51;;;;;;;;;45.00;35.25;;;;;22.20;100.00;101643.66;5144180;27;45308;-83
2022/07/23 07:36:16;;;;;;;;;47.50;34.50;;;;;22.19;100.00;101648.03;5144194;27;45423;-84
2022/07/23 07:38:42;;;;;;;;;45.25;34.50;;;;;22.23;100.00;101646.34;5130293;27;45261;-81
2022/07/23 07:41:09;;;;;;;;;48.25;37.25;;;;;22.22;100.00;101650.72;5102229;27;45400;-86
2022/07/23 07:43:36;;;;;;;;;50.00;37.00;;;;;22.23;100.00;101643.72;5132013;27;45377;-86
2022/07/23 07:46:03;;;;;;;;;46.50;37.50;;;;;22.27;100.00;101649.03;5130281;27;45424;-84
2022/07/23 07:48:29;;;;;;;;;51.50;36.50;;;;;22.25;100.00;101645.50;5127725;27;45446;-89
2022/07/23 07:50:55;;;;;;;;;49.50;36.25;;;;;22.29;100.00;101653.44;5124304;27;45225;-86
2022/07/23 07:53:21;;;;;;;;;41.25;34.50;;;;;22.34;100.00;101657.91;5123028;27;45209;-84
2022/07/23 07:55:46;;;;;;;;;50.50;35.00;;;;;22.40;100.00;101664.97;5124415;27;45337;-81
2022/07/23 07:58:12;;;;;;;;;48.25;35.50;;;;;22.36;100.00;101650.84;5122613;27;45316;-84
2022/07/23 08:00:38;;;;;;;;;44.50;36.75;;;;;22.43;100.00;101659.75;5119490;27;46262;-87
2022/07/23 08:03:03;;;;;;;;;40.00;33.75;;;;;22.44;100.00;101650.09;5121394;27;45352;-83
2022/07/23 08:05:30;;;;;;;;;40.25;33.25;;;;;22.52;100.00;101664.22;5127536;27;45560;-86
2022/07/23 08:07:57;;;;;;;;;47.00;36.50;;;;;22.50;100.00;101661.59;5129346;27;45389;-79
2022/07/23 08:10:24;;;;;;;;;37.00;30.25;;;;;22.53;100.00;101663.38;5119928;27;46820;-82
2022/07/23 08:12:56;;;;;;;;;45.75;36.50;;;;;22.57;100.00;101660.75;5120217;27;45322;-82
2022/07/23 08:15:22;;;;;;;;;47.25;34.50;;;;;22.62;100.00;101665.22;5120318;27;45291;-81
2022/07/23 08:17:49;;;;;;;;;44.75;33.75;;;;;22.65;100.00;101662.56;5121508;27;45357;-81
2022/07/23 08:20:16;;;;;;;;;45.50;35.25;;;;;22.69;100.00;101669.66;5124259;27;45476;-82
2022/07/23 08:22:54;;;;;;;;;48.75;35.25;;;;;22.73;100.00;101666.19;5125472;27;45483;-83
2022/07/23 08:25:25;;;;;;;;;39.25;30.25;;;;;22.73;100.00;101672.34;5128526;27;45469;-83
2022/07/23 08:27:51;;;;;;;;;45.00;35.50;;;;;22.77;100.00;101680.28;5103045;27;45273;-85
2022/07/23 08:30:18;;;;;;;;;41.25;33.75;;;;;22.79;100.00;101681.16;5101794;27;46737;-84
2022/07/23 08:33:01;;;;;;;;;41.00;34.50;;;;;22.83;100.00;101693.53;5101275;27;45883;-83
2022/07/23 08:35:30;;;;;;;;;40.25;31.00;;;;;22.85;100.00;101691.78;5101318;27;45494;-83
2022/07/23 08:37:56;;;;;;;;;40.50;32.50;;;;;22.86;100.00;101698.84;5120737;27;45943;-83
2022/07/23 08:40:25;;;;;;;;;48.00;35.00;;;;;22.84;100.00;101692.66;5119607;27;46132;-82
2022/07/23 08:42:51;;;;;;;;;40.50;32.75;;;;;22.91;100.00;101696.22;5101403;27;45349;-83
2022/07/23 08:45:20;;;;;;;;;34.75;30.75;;;;;22.92;100.00;101700.63;5122131;27;45454;-80
2022/07/23 08:47:52;;;;;;;;;38.25;31.75;;;;;23.01;100.00;101696.28;5104334;27;45369;-81
2022/07/23 08:50:18;;;;;;;;;42.00;32.25;;;;;23.13;100.00;101695.50;5128792;27;45305;-81
2022/07/23 08:52:44;;;;;;;;;42.00;33.00;;;;;23.19;100.00;101708.78;5131890;27;45538;-83
2022/07/23 08:55:10;;;;;;;;;42.50;34.00;;;;;23.22;100.00;101701.75;5144278;27;45315;-83
2022/07/23 08:57:35;;;;;;;;;47.75;32.50;;;;;23.31;100.00;101715.94;5141530;27;45522;-85
2022/07/23 09:00:04;;;;;;;;;39.75;29.50;;;;;23.38;100.00;101711.53;5125516;27;46080;-83
2022/07/23 09:02:30;;;;;;;;;29.50;28.25;;;;;23.43;100.00;101701.03;5119474;27;46253;-85
2022/07/23 09:04:56;;;;;;;;;42.75;33.50;;;;;23.47;100.00;101698.41;5120336;27;45687;-82
2022/07/23 09:07:22;;;;;;;;;31.25;29.75;;;;;23.52;100.00;101700.16;5121306;27;45610;-90
2022/07/23 09:10:10;;;;;;;;;44.75;32.25;;;;;23.61;100.00;101703.75;5109624;27;45495;-83
2022/07/23 09:12:37;;;;;;;;;41.50;32.75;;;;;23.69;100.00;101697.59;5139902;27;45828;-80
2022/07/23 09:15:08;;;;;;;;;40.25;33.00;;;;;23.77;100.00;101698.50;5142141;27;45214;-82
2022/07/23 09:17:39;;;;;;;;;46.00;32.25;;;;;23.82;100.00;101704.72;5141850;27;45320;-86
2022/07/23 09:20:13;;;;;;;;;38.50;31.00;;;;;23.90;100.00;101696.81;5140695;27;45352;-85
2022/07/23 09:22:45;;;;;;;;;44.00;31.00;;;;;23.94;100.00;101699.47;5140584;27;45258;-82
2022/07/23 09:25:14;;;;;;;;;38.75;32.00;;;;;23.99;100.00;101695.97;5138963;27;45511;-82
2022/07/23 09:27:59;;;;;;;;;33.50;29.50;;;;;24.06;100.00;101696.00;5137713;27;45908;-82
2022/07/23 09:30:30;;;;;;;;;37.75;32.50;;;;;24.11;100.00;101698.66;5138710;27;46004;-81
2022/07/23 09:33:10;;;;;;;;;41.50;32.25;;;;;24.19;100.00;101696.03;5138996;27;45427;-83
2022/07/23 09:35:51;;;;;;;;;29.50;28.00;;;;;24.27;100.00;101689.91;5118675;27;45842;-82
2022/07/23 09:38:22;;;;;;;;;32.00;29.00;;;;;24.34;100.00;101698.72;5118730;27;45218;-82
2022/07/23 09:41:09;;;;;;;;;38.00;31.50;;;;;24.37;100.00;101690.78;5120277;27;46301;-81
2022/07/23 09:43:35;;;;;;;;;36.25;30.25;;;;;24.38;100.00;101691.69;5103353;27;45372;-78
2022/07/23 09:46:19;;;;;;;;;37.50;32.75;;;;;24.45;100.00;101697.88;5119891;27;45358;-81
2022/07/23 09:48:46;;;;;;;;;38.50;31.50;;;;;24.48;100.00;101701.41;5119449;27;45337;-80
2022/07/23 09:51:13;;;;;;;;;37.00;31.75;;;;;24.46;100.00;101702.28;5118683;27;46041;-81
2022/07/23 09:53:39;;;;;;;;;31.50;26.00;;;;;24.47;100.00;101704.03;5118098;27;45342;-81
2022/07/23 09:56:06;;;;;;;;;36.00;30.75;;;;;24.57;100.00;101701.41;5100516;27;45315;-80
2022/07/23 09:58:33;;;;;;;;;32.00;30.50;;;;;24.61;100.00;101696.13;5119499;27;45568;-80
2022/07/23 10:00:59;;;;;;;;;39.75;30.75;;;;;24.65;100.00;101697.84;5118335;27;46564;-81
2022/07/23 10:03:26;;;;;;;;;35.75;30.50;;;;;24.68;100.00;101689.94;5118182;27;45860;-79
2022/07/23 10:05:52;;;;;;;;;32.25;29.50;;;;;24.75;100.00;101701.44;5102670;27;45440;-80
2022/07/23 10:08:19;;;;;;;;;37.50;31.50;;;;;24.72;100.00;101695.25;5101860;27;45254;-81
2022/07/23 10:10:49;;;;;;;;;34.00;30.50;;;;;24.79;100.00;101692.59;5118000;27;46198;-80
2022/07/23 10:15:59;;;;;;;;;35.00;30.25;;;;;24.90;100.00;101692.59;5118194;27;45499;-82
2022/07/23 10:18:25;;;;;;;;;55.50;42.50;;;;;24.96;100.00;101688.19;5118366;27;45416;-82
2022/07/23 10:20:51;;;;;;;;;36.00;30.25;;;;;25.01;100.00;101685.53;5100706;27;46468;-82
2022/07/23 10:23:49;;;;;;;;;34.50;30.00;;;;;25.09;100.00;101686.38;5103050;27;45480;-87
2022/07/23 10:26:28;;;;;;;;;33.75;28.00;;;;;25.14;100.00;101678.44;5104150;27;45287;-87
2022/07/23 10:29:19;;;;;;;;;27.75;24.00;;;;;25.15;100.00;101685.50;5141314;27;45392;-84
2022/07/23 10:32:02;;;;;;;;;31.75;27.00;;;;;25.14;100.00;101689.94;5105142;27;46267;-82
2022/07/23 10:34:41;;;;;;;;;61.00;45.50;;;;;25.13;100.00;101692.56;5143501;27;45257;-87
2022/07/23 10:37:28;;;;;;;;;34.50;29.75;;;;;25.16;100.00;101698.72;5125837;27;45396;-95
2022/07/23 10:40:17;;;;;;;;;33.25;29.75;;;;;25.16;100.00;101709.34;5143673;27;45346;-86
2022/07/23 10:42:44;;;;;;;;;28.25;25.25;;;;;25.18;100.00;101701.41;5131960;27;45290;-92
2022/07/23 10:45:31;;;;;;;;;30.75;25.50;;;;;25.21;100.00;101712.00;5108591;27;45445;-84
2022/07/23 10:48:11;;;;;;;;;32.75;25.75;;;;;25.21;100.00;101713.75;5106383;27;45399;-84
2022/07/23 10:50:37;;;;;;;;;32.00;28.75;;;;;25.15;100.00;101712.00;5130056;27;45421;-79
2022/07/23 10:53:09;;;;;;;;;30.25;28.50;;;;;25.15;100.00;101714.66;5120232;27;46070;-87
2022/07/23 10:55:34;;;;;;;;;35.00;29.75;;;;;25.19;100.00;101719.06;5130738;27;45392;-85
2022/07/23 10:58:05;;;;;;;;;38.00;27.00;;;;;25.21;100.00;101729.66;5141282;27;45308;-85
2022/07/23 11:00:32;;;;;;;;;31.50;26.75;;;;;25.30;100.00;101737.59;5125916;27;45203;-84
2022/07/23 11:03:07;;;;;;;;;22.50;22.50;;;;;25.34;100.00;101728.75;5140971;27;45400;-87
2022/07/23 11:05:43;;;;;;;;;28.75;20.25;;;;;25.38;100.00;101738.44;5140181;27;45942;-87